createdAt,value
2023-01-03T00:01:17.021Z,9.23
2023-01-03T00:03:43.955Z,9.10
2023-01-03T00:06:41.270Z,8.02
2023-01-03T00:09:09.921Z,7.90
2023-01-03T00:11:57.122Z,8.93
2023-01-03T00:14:30.250Z,9.02
2023-01-03T00:16:59.018Z,9.35
2023-01-03T00:19:27.220Z,8.70
2023-01-03T00:21:54.662Z,8.55
2023-01-03T00:24:21.695Z,7.07
2023-01-03T00:26:48.376Z,8.25
2023-01-03T00:29:15.739Z,8.55
2023-01-03T00:31:42.798Z,6.45
2023-01-03T00:34:09.975Z,8.65
2023-01-03T00:36:37.608Z,6.97
2023-01-03T00:39:05.117Z,8.00
2023-01-03T00:41:32.211Z,5.78
2023-01-03T00:43:59.130Z,6.68
2023-01-03T00:46:25.832Z,8.82
2023-01-03T00:48:52.530Z,7.10
2023-01-03T00:51:25.700Z,6.03
2023-01-03T00:53:55.878Z,7.13
2023-01-03T00:56:25.962Z,8.10
2023-01-03T00:58:53.190Z,8.10
2023-01-03T01:01:38.033Z,5.75
2023-01-03T01:04:12.446Z,6.78
2023-01-03T01:06:44.870Z,7.43
2023-01-03T01:09:14.054Z,5.82
2023-01-03T01:11:41.205Z,6.03
2023-01-03T01:14:19.810Z,7.60
2023-01-03T01:16:57.823Z,4.57
2023-01-03T01:19:28.174Z,7.28
2023-01-03T01:21:55.090Z,7.28
2023-01-03T01:24:21.833Z,7.47
2023-01-03T01:26:49.108Z,6.40
2023-01-03T01:29:17.085Z,7.50
2023-01-03T01:31:45.704Z,6.85
2023-01-03T01:34:13.171Z,7.38
2023-01-03T01:36:42.026Z,7.80
2023-01-03T01:39:16.123Z,8.40
2023-01-03T01:42:02.438Z,8.25
2023-01-03T01:44:53.068Z,7.68
2023-01-03T01:47:44.527Z,7.55
2023-01-03T01:50:34.722Z,6.38
2023-01-03T01:53:01.259Z,10.90
2023-01-03T01:55:36.540Z,9.30
2023-01-03T01:58:03.503Z,7.82
2023-01-03T02:00:30.280Z,9.27
2023-01-03T02:02:56.968Z,7.13
2023-01-03T02:05:24.249Z,8.55
2023-01-03T02:07:52.582Z,8.40
2023-01-03T02:10:30.101Z,8.75
2023-01-03T02:13:06.859Z,7.50
2023-01-03T02:15:45.243Z,8.60
2023-01-03T02:18:17.471Z,6.97
2023-01-03T02:21:23.731Z,8.13
2023-01-03T02:23:50.250Z,6.53
2023-01-03T02:26:31.571Z,9.65
2023-01-03T02:29:20.112Z,7.22
2023-01-03T02:32:07.898Z,7.72
2023-01-03T02:34:49.635Z,7.22
2023-01-03T02:37:39.063Z,9.52
2023-01-03T02:40:34.868Z,7.10
2023-01-03T02:43:14.201Z,6.90
2023-01-03T02:45:59.983Z,8.93
2023-01-03T02:48:41.885Z,6.28
2023-01-03T02:51:16.822Z,7.38
2023-01-03T02:53:47.340Z,6.72
2023-01-03T02:56:28.777Z,7.25
2023-01-03T02:59:01.424Z,9.00
2023-01-03T03:01:29.883Z,7.47
2023-01-03T03:03:58.562Z,6.07
2023-01-03T03:06:58.381Z,7.35
2023-01-03T03:09:25.110Z,6.97
2023-01-03T03:12:12.990Z,7.82
2023-01-03T03:14:51.194Z,7.25
2023-01-03T03:17:24.746Z,6.40
2023-01-03T03:20:15.641Z,6.20
2023-01-03T03:23:04.847Z,6.63
2023-01-03T03:25:56.976Z,10.25
2023-01-03T03:28:35.644Z,10.38
2023-01-03T03:31:08.146Z,7.80
2023-01-03T03:33:43.794Z,9.05
2023-01-03T03:36:17.644Z,8.50
2023-01-03T03:38:45.622Z,9.93
2023-01-03T03:41:46.864Z,9.38
2023-01-03T03:44:49.087Z,10.30
2023-01-03T03:47:33.916Z,10.32
2023-01-03T03:50:06.995Z,11.85
2023-01-03T03:52:35.042Z,11.27
2023-01-03T03:55:09.185Z,9.73
2023-01-03T03:57:52.849Z,10.98
2023-01-03T04:00:25.114Z,11.43
2023-01-03T04:05:23.021Z,9.60
2023-01-03T04:07:49.766Z,11.60
2023-01-03T04:10:20.351Z,11.50
2023-01-03T04:12:48.467Z,13.35
2023-01-03T04:15:15.755Z,11.70
2023-01-03T04:17:43.098Z,14.75
2023-01-03T04:20:11.343Z,10.82
2023-01-03T04:22:38.605Z,12.15
2023-01-03T04:25:05.523Z,15.63
2023-01-03T04:27:32.087Z,11.25
2023-01-03T04:29:58.800Z,13.20
2023-01-03T04:32:25.379Z,14.50
2023-01-03T04:34:52.004Z,14.40
2023-01-03T04:37:18.618Z,12.35
2023-01-03T04:39:45.308Z,15.30
2023-01-03T04:42:30.445Z,15.00
2023-01-03T04:44:57.011Z,13.35
2023-01-03T04:47:23.549Z,13.45
2023-01-03T04:49:50.138Z,13.95
2023-01-03T04:52:17.399Z,14.85
2023-01-03T04:54:44.072Z,13.43
2023-01-03T04:57:10.812Z,14.35
2023-01-03T04:59:37.578Z,13.13
2023-01-03T05:02:04.480Z,13.93
2023-01-03T05:04:31.284Z,18.38
2023-01-03T05:06:58.218Z,15.95
2023-01-03T05:09:26.755Z,15.75
2023-01-03T05:11:53.418Z,16.17
2023-01-03T05:14:20.039Z,16.88
2023-01-03T05:16:46.713Z,18.38
2023-01-03T05:19:13.523Z,16.70
2023-01-03T05:21:59.032Z,14.93
2023-01-03T05:24:44.387Z,15.05
2023-01-03T05:27:11.367Z,15.05
2023-01-03T05:29:38.089Z,13.65
2023-01-03T05:32:05.288Z,16.17
2023-01-03T05:34:31.989Z,15.70
2023-01-03T05:36:58.547Z,16.83
2023-01-03T05:39:25.139Z,17.95
2023-01-03T05:42:00.711Z,15.50
2023-01-03T05:44:34.280Z,15.88
2023-01-03T05:47:03.112Z,17.33
2023-01-03T05:49:29.855Z,21.05
2023-01-03T05:51:56.430Z,20.27
2023-01-03T05:54:23.041Z,19.17
2023-01-03T05:56:51.010Z,19.77
2023-01-03T05:59:18.206Z,19.13
2023-01-03T06:01:44.794Z,17.38
2023-01-03T06:04:11.592Z,17.77
2023-01-03T06:06:38.167Z,16.65
2023-01-03T06:09:05.149Z,20.15
2023-01-03T06:11:31.725Z,17.88
2023-01-03T06:13:58.353Z,19.80
2023-01-03T06:16:43.532Z,19.70
2023-01-03T06:19:10.205Z,20.15
2023-01-03T06:21:37.514Z,20.25
2023-01-03T06:24:04.636Z,21.17
2023-01-03T06:26:31.293Z,22.05
2023-01-03T06:28:58.477Z,22.35
2023-01-03T06:31:25.408Z,21.35
2023-01-03T06:33:52.028Z,20.33
2023-01-03T06:36:21.038Z,20.80
2023-01-03T06:38:47.747Z,22.77
2023-01-03T06:41:16.275Z,21.27
2023-01-03T06:43:43.331Z,22.88
2023-01-03T06:46:30.947Z,22.73
2023-01-03T06:49:17.076Z,19.77
2023-01-03T06:52:02.774Z,20.35
2023-01-03T06:54:31.680Z,20.02
2023-01-03T06:56:58.643Z,25.58
2023-01-03T06:59:25.843Z,22.52
2023-01-03T07:01:53.654Z,24.45
2023-01-03T07:04:22.164Z,22.92
2023-01-03T07:06:48.821Z,22.15
2023-01-03T07:09:15.936Z,24.63
2023-01-03T07:11:42.744Z,24.73
2023-01-03T07:14:10.935Z,22.30
2023-01-03T07:16:43.720Z,23.10
2023-01-03T07:19:15.999Z,25.27
2023-01-03T07:24:12.385Z,22.55
2023-01-03T07:26:39.197Z,22.55
2023-01-03T07:29:08.521Z,24.63
2023-01-03T07:31:38.344Z,21.27
2023-01-03T07:34:05.019Z,21.48
2023-01-03T07:36:31.600Z,21.65
2023-01-03T07:38:58.298Z,21.25
2023-01-03T07:41:44.949Z,18.48
2023-01-03T07:44:11.699Z,19.65
2023-01-03T07:46:38.430Z,19.98
2023-01-03T07:49:11.223Z,18.27
2023-01-03T07:51:38.672Z,20.00
2023-01-03T07:54:05.354Z,22.52
2023-01-03T07:56:32.361Z,22.30
2023-01-03T07:58:59.778Z,17.45
2023-01-03T08:01:26.806Z,20.70
2023-01-03T08:03:53.768Z,18.05
2023-01-03T08:06:22.885Z,20.30
2023-01-03T08:09:10.126Z,20.60
2023-01-03T08:11:55.431Z,20.30
2023-01-03T08:14:26.027Z,17.55
2023-01-03T08:16:53.790Z,17.73
2023-01-03T08:19:20.379Z,18.85
2023-01-03T08:21:46.945Z,18.02
2023-01-03T08:24:13.547Z,18.15
2023-01-03T08:26:40.173Z,18.35
2023-01-03T08:29:07.157Z,19.48
2023-01-03T08:31:37.820Z,21.05
2023-01-03T08:34:12.043Z,18.10
2023-01-03T08:36:50.812Z,21.20
2023-01-03T08:39:20.707Z,20.17
2023-01-03T08:41:54.013Z,20.92
2023-01-03T08:44:20.595Z,21.65
2023-01-03T08:46:51.210Z,23.00
2023-01-03T08:49:18.756Z,19.77
2023-01-03T08:51:45.493Z,20.10
2023-01-03T08:54:12.231Z,18.92
2023-01-03T08:56:39.969Z,21.83
2023-01-03T08:59:08.242Z,18.08
2023-01-03T09:01:35.158Z,21.58
2023-01-03T09:04:01.953Z,23.65
2023-01-03T09:06:28.559Z,21.65
2023-01-03T09:08:55.134Z,20.88
2023-01-03T09:11:21.808Z,18.95
2023-01-03T09:13:48.478Z,21.52
2023-01-03T09:16:16.439Z,25.75
2023-01-03T09:18:43.578Z,23.55
2023-01-03T09:21:10.267Z,26.65
2023-01-03T09:23:37.591Z,21.95
2023-01-03T09:26:05.323Z,26.25
2023-01-03T09:28:32.192Z,25.20
2023-01-03T09:30:58.921Z,24.65
2023-01-03T09:33:25.930Z,22.70
2023-01-03T09:35:56.895Z,24.50
2023-01-03T09:38:23.624Z,23.13
2023-01-03T09:41:00.245Z,24.08
2023-01-03T09:43:34.880Z,24.08
2023-01-03T09:46:02.048Z,28.90
2023-01-03T09:48:37.250Z,22.88
2023-01-03T09:51:29.760Z,23.88
2023-01-03T09:54:16.656Z,23.27
2023-01-03T09:57:02.013Z,24.70
2023-01-03T09:59:53.496Z,24.25
2023-01-03T10:03:01.373Z,22.67
2023-01-03T10:05:33.922Z,22.63
2023-01-03T10:08:01.326Z,27.15
2023-01-03T10:10:42.866Z,23.48
2023-01-03T10:13:19.957Z,20.15
2023-01-03T10:15:56.199Z,23.23
2023-01-03T10:18:57.979Z,21.88
2023-01-03T10:21:25.253Z,22.30
2023-01-03T10:23:54.741Z,21.33
2023-01-03T10:26:27.837Z,22.35
2023-01-03T10:28:59.544Z,18.73
2023-01-03T10:31:41.215Z,21.73
2023-01-03T10:34:11.050Z,19.10
2023-01-03T10:36:37.615Z,26.17
2023-01-03T10:39:06.600Z,23.52
2023-01-03T10:41:52.341Z,19.02
2023-01-03T10:44:28.047Z,19.75
2023-01-03T10:46:57.463Z,18.10
2023-01-03T10:49:30.024Z,17.35
2023-01-03T10:52:09.337Z,15.90
2023-01-03T10:54:56.219Z,16.90
2023-01-03T10:57:48.770Z,14.75
2023-01-03T11:00:36.803Z,13.43
2023-01-03T11:03:12.255Z,14.63
2023-01-03T11:05:41.945Z,15.25
2023-01-03T11:08:16.015Z,13.95
2023-01-03T11:10:58.306Z,14.95
2023-01-03T11:13:42.117Z,14.20
2023-01-03T11:16:32.007Z,12.98
2023-01-03T11:19:01.816Z,12.20
2023-01-03T11:21:48.191Z,11.20
2023-01-03T11:24:32.602Z,12.05
2023-01-03T11:27:08.089Z,11.38
2023-01-03T11:29:40.284Z,9.45
2023-01-03T11:32:28.578Z,11.52
2023-01-03T11:35:32.922Z,10.13
2023-01-03T11:38:18.469Z,9.68
2023-01-03T11:41:20.029Z,9.82
2023-01-03T11:44:11.938Z,9.13
2023-01-03T11:47:33.067Z,10.68
2023-01-03T11:50:11.101Z,9.90
2023-01-03T11:52:49.977Z,8.40
2023-01-03T11:55:22.692Z,9.48
2023-01-03T11:57:55.259Z,9.98
2023-01-03T12:00:33.905Z,8.50
2023-01-03T12:03:14.894Z,8.70
2023-01-03T12:05:49.017Z,8.73
2023-01-03T12:08:36.080Z,9.35
2023-01-03T12:11:10.343Z,8.23
2023-01-03T12:13:59.597Z,8.85
2023-01-03T12:16:37.191Z,8.40
2023-01-03T12:19:22.168Z,7.13
2023-01-03T12:21:54.052Z,6.88
2023-01-03T12:24:34.682Z,7.03
2023-01-03T12:27:10.308Z,7.95
2023-01-03T12:30:13.396Z,7.53
2023-01-03T12:32:44.616Z,7.72
2023-01-03T12:35:31.599Z,7.85
2023-01-03T12:37:59.209Z,7.60
2023-01-03T12:40:34.096Z,6.13
2023-01-03T12:43:16.625Z,6.45
2023-01-03T12:48:42.349Z,5.97
2023-01-03T12:51:09.351Z,5.97
2023-01-03T12:54:01.492Z,6.13
2023-01-03T12:56:38.471Z,7.78
2023-01-03T12:59:50.856Z,5.13
2023-01-03T13:02:39.116Z,6.45
2023-01-03T13:05:35.481Z,5.88
2023-01-03T13:08:36.093Z,5.22
2023-01-03T13:11:08.408Z,3.72
2023-01-03T13:13:35.623Z,3.85
2023-01-03T13:16:34.299Z,3.80
2023-01-03T13:19:20.057Z,3.80
2023-01-03T13:21:52.865Z,2.90
2023-01-03T13:24:46.092Z,3.92
2023-01-03T13:27:24.689Z,3.45
2023-01-03T13:29:56.547Z,4.43
2023-01-03T13:32:23.100Z,4.40
2023-01-03T13:35:33.125Z,3.47
2023-01-03T13:38:31.533Z,3.17
2023-01-03T13:41:33.207Z,3.58
2023-01-03T13:44:20.319Z,2.78
2023-01-03T13:46:48.735Z,3.63
2023-01-03T13:49:23.051Z,4.53
2023-01-03T13:51:55.323Z,3.38
2023-01-03T13:54:21.927Z,3.67
2023-01-03T13:56:48.581Z,3.60
2023-01-03T13:59:15.180Z,5.57
2023-01-03T14:02:01.011Z,3.95
2023-01-03T14:04:42.621Z,4.63
2023-01-03T14:07:25.779Z,3.45
2023-01-03T14:10:16.630Z,3.00
2023-01-03T14:12:43.189Z,4.03
2023-01-03T14:15:25.419Z,2.85
2023-01-03T14:17:58.069Z,4.53
2023-01-03T14:20:31.842Z,3.60
2023-01-03T14:23:23.448Z,3.42
2023-01-03T14:25:51.332Z,3.05
2023-01-03T14:28:23.776Z,3.53
2023-01-03T14:30:57.977Z,4.60
2023-01-03T14:33:30.147Z,2.17
2023-01-03T14:36:05.831Z,3.17
2023-01-03T14:38:34.768Z,3.63
2023-01-03T14:41:02.735Z,4.25
2023-01-03T14:43:31.195Z,3.33
2023-01-03T14:46:07.408Z,6.05
2023-01-03T14:48:34.274Z,3.58
2023-01-03T14:51:03.158Z,4.18
2023-01-03T14:53:32.365Z,3.28
2023-01-03T14:55:59.743Z,5.13
2023-01-03T14:58:32.780Z,4.60
2023-01-03T15:01:02.572Z,3.13
2023-01-03T15:03:36.878Z,2.85
2023-01-03T15:06:16.248Z,4.28
2023-01-03T15:08:44.577Z,4.75
2023-01-03T15:11:13.715Z,3.40
2023-01-03T15:13:53.838Z,3.55
2023-01-03T15:16:37.205Z,2.97
2023-01-03T15:19:29.476Z,4.97
2023-01-03T15:22:14.946Z,3.13
2023-01-03T15:24:45.115Z,4.53
2023-01-03T15:27:41.187Z,4.07
2023-01-03T15:30:22.293Z,4.30
2023-01-03T15:33:01.022Z,3.80
2023-01-03T15:35:42.153Z,3.75
2023-01-03T15:38:32.082Z,2.90
2023-01-03T15:41:00.072Z,3.40
2023-01-03T15:43:33.650Z,3.20
2023-01-03T15:46:15.651Z,3.83
2023-01-03T15:48:51.181Z,3.53
2023-01-03T15:51:18.551Z,4.30
2023-01-03T15:53:45.872Z,3.40
2023-01-03T15:56:18.125Z,4.32
2023-01-03T15:58:46.426Z,3.53
2023-01-03T16:01:13.822Z,3.95
2023-01-03T16:03:40.936Z,3.17
2023-01-03T16:06:07.659Z,3.30
2023-01-03T16:08:39.758Z,4.25
2023-01-03T16:11:18.140Z,3.75
2023-01-03T16:13:52.137Z,3.83
2023-01-03T16:16:29.090Z,2.97
2023-01-03T16:18:56.229Z,4.53
2023-01-03T16:21:23.613Z,3.70
2023-01-03T16:23:51.285Z,4.25
2023-01-03T16:26:18.307Z,4.05
2023-01-03T16:28:45.147Z,3.63
2023-01-03T16:31:19.490Z,4.55
2023-01-03T16:33:48.693Z,4.78
2023-01-03T16:36:39.543Z,5.40
2023-01-03T16:39:13.535Z,5.15
2023-01-03T16:41:40.193Z,3.63
2023-01-03T16:44:06.799Z,2.95
2023-01-03T16:46:36.149Z,3.88
2023-01-03T16:49:03.144Z,3.95
2023-01-03T16:51:34.213Z,3.40
2023-01-03T16:54:03.556Z,4.32
2023-01-03T16:56:30.797Z,3.95
2023-01-03T16:58:57.371Z,3.97
2023-01-03T17:01:24.151Z,5.28
2023-01-03T17:03:50.925Z,4.60
2023-01-03T17:06:38.044Z,3.85
2023-01-03T17:09:26.943Z,4.18
2023-01-03T17:11:53.582Z,5.13
2023-01-03T17:14:22.100Z,4.43
2023-01-03T17:16:49.745Z,2.80
2023-01-03T17:20:02.875Z,5.10
2023-01-03T17:22:14.733Z,3.33
2023-01-03T17:24:41.735Z,4.43
2023-01-03T17:27:19.940Z,3.45
2023-01-03T17:29:53.787Z,3.70
2023-01-03T17:32:21.425Z,4.07
2023-01-03T17:34:48.054Z,3.88
2023-01-03T17:37:21.231Z,4.47
2023-01-03T17:39:56.625Z,6.32
2023-01-03T17:42:25.316Z,4.95
2023-01-03T17:45:10.990Z,5.95
2023-01-03T17:47:59.039Z,4.53
2023-01-03T17:50:27.259Z,8.50
2023-01-03T17:52:56.275Z,5.78
2023-01-03T17:55:26.538Z,7.30
2023-01-03T17:57:54.441Z,5.80
2023-01-03T18:00:28.783Z,4.78
2023-01-03T18:02:56.362Z,13.85
2023-01-03T18:05:28.413Z,21.23
2023-01-03T18:07:57.020Z,13.98
2023-01-03T18:10:47.123Z,13.45
2023-01-03T18:13:26.781Z,10.52
2023-01-03T18:15:54.860Z,11.05
2023-01-03T18:18:24.079Z,9.98
2023-01-03T18:20:51.766Z,10.52
2023-01-03T18:23:29.568Z,9.77
2023-01-03T18:26:00.898Z,7.35
2023-01-03T18:28:28.541Z,11.13
2023-01-03T18:30:55.974Z,10.32
2023-01-03T18:33:23.462Z,7.57
2023-01-03T18:35:50.343Z,10.00
2023-01-03T18:38:26.807Z,8.90
2023-01-03T18:40:59.061Z,7.35
2023-01-03T18:43:30.860Z,6.85
2023-01-03T18:45:57.549Z,5.75
2023-01-03T18:48:24.406Z,6.75
2023-01-03T18:50:58.371Z,5.57
2023-01-03T18:53:28.519Z,4.93
2023-01-03T18:55:55.384Z,4.18
2023-01-03T18:58:39.706Z,4.40
2023-01-03T19:01:06.743Z,4.18
2023-01-03T19:03:35.162Z,4.70
2023-01-03T19:06:03.123Z,4.28
2023-01-03T19:08:32.379Z,4.18
2023-01-03T19:11:05.767Z,4.40
2023-01-03T19:13:54.554Z,4.45
2023-01-03T19:16:26.936Z,2.95
2023-01-03T19:21:22.308Z,3.88
2023-01-03T19:24:12.169Z,3.40
2023-01-03T19:26:44.339Z,3.72
2023-01-03T19:29:20.992Z,3.97
2023-01-03T19:31:50.032Z,3.00
2023-01-03T19:34:23.192Z,3.75
2023-01-03T19:36:50.180Z,4.80
2023-01-03T19:39:24.038Z,4.07
2023-01-03T19:42:34.369Z,4.63
2023-01-03T19:45:02.875Z,4.63
2023-01-03T19:47:29.498Z,5.57
2023-01-03T19:49:57.185Z,12.32
2023-01-03T19:52:24.617Z,8.60
2023-01-03T19:54:51.208Z,6.47
2023-01-03T19:57:23.400Z,6.43
2023-01-03T19:59:54.091Z,4.03
2023-01-03T20:02:33.361Z,4.10
2023-01-03T20:05:00.384Z,3.65
2023-01-03T20:07:27.207Z,3.90
2023-01-03T20:09:53.773Z,3.33
2023-01-03T20:12:26.015Z,4.00
2023-01-03T20:14:55.009Z,5.05
2023-01-03T20:17:24.003Z,3.13
2023-01-03T20:19:51.565Z,4.22
2023-01-03T20:22:53.461Z,3.53
2023-01-03T20:25:19.661Z,3.42
2023-01-03T20:27:47.826Z,2.88
2023-01-03T20:30:19.596Z,3.83
2023-01-03T20:32:46.316Z,3.20
2023-01-03T20:36:06.274Z,3.05
2023-01-03T20:38:02.648Z,1.60
2023-01-03T20:40:29.459Z,2.33
2023-01-03T20:42:57.417Z,3.28
2023-01-03T20:45:24.104Z,2.75
2023-01-03T20:47:53.019Z,3.10
2023-01-03T20:50:23.239Z,2.80
2023-01-03T20:52:50.011Z,2.55
2023-01-03T20:55:19.511Z,2.90
2023-01-03T20:57:46.135Z,2.85
2023-01-03T21:00:22.220Z,2.45
2023-01-03T21:02:50.189Z,2.17
2023-01-03T21:05:17.887Z,2.92
2023-01-03T21:08:03.561Z,3.10
2023-01-03T21:10:33.320Z,2.33
2023-01-03T21:12:59.905Z,3.17
2023-01-03T21:15:26.572Z,2.83
2023-01-03T21:17:53.261Z,2.60
2023-01-03T21:20:24.045Z,1.90
2023-01-03T21:22:51.024Z,3.58
2023-01-03T21:25:27.456Z,2.60
2023-01-03T21:27:54.673Z,2.17
2023-01-03T21:30:23.252Z,3.03
2023-01-03T21:32:50.036Z,3.95
2023-01-03T21:35:20.237Z,2.70
2023-01-03T21:37:47.657Z,2.17
2023-01-03T21:40:21.835Z,3.45
2023-01-03T21:43:05.565Z,2.33
2023-01-03T21:45:41.436Z,2.50
2023-01-03T21:48:14.034Z,3.17
2023-01-03T21:50:42.911Z,2.05
2023-01-03T21:53:14.332Z,3.25
2023-01-03T21:55:41.675Z,3.30
2023-01-03T21:58:08.494Z,2.35
2023-01-03T22:00:35.160Z,2.85
2023-01-03T22:03:20.490Z,2.58
2023-01-03T22:05:47.089Z,2.25
2023-01-03T22:08:13.681Z,2.35
2023-01-03T22:10:42.076Z,2.40
2023-01-03T22:13:11.193Z,2.55
2023-01-03T22:15:39.401Z,2.40
2023-01-03T22:18:08.855Z,2.83
2023-01-03T22:20:38.768Z,2.70
2023-01-03T22:23:06.664Z,1.45
2023-01-03T22:25:33.318Z,2.50
2023-01-03T22:28:00.044Z,2.38
2023-01-03T22:30:27.080Z,3.00
2023-01-03T22:32:57.249Z,2.72
2023-01-03T22:35:24.273Z,2.80
2023-01-03T22:37:50.957Z,2.58
2023-01-03T22:40:17.813Z,3.38
2023-01-03T22:42:44.397Z,2.00
2023-01-03T22:45:11.313Z,2.42
2023-01-03T22:47:38.263Z,3.15
2023-01-03T22:50:07.094Z,2.22
2023-01-03T22:52:34.884Z,2.47
2023-01-03T22:55:01.661Z,2.20
2023-01-03T22:57:28.230Z,2.75
2023-01-03T22:59:54.835Z,2.55
2023-01-03T23:02:27.971Z,2.00
2023-01-03T23:04:55.210Z,3.00
2023-01-03T23:07:21.817Z,4.38
2023-01-03T23:09:48.433Z,3.47
2023-01-03T23:12:33.764Z,2.72
2023-01-03T23:15:00.353Z,4.57
2023-01-03T23:17:45.430Z,3.35
2023-01-03T23:20:12.140Z,3.08
2023-01-03T23:22:38.780Z,2.47
2023-01-03T23:25:07.004Z,3.03
2023-01-03T23:27:33.791Z,2.53
2023-01-03T23:30:00.368Z,2.35
2023-01-03T23:32:26.916Z,3.65
2023-01-03T23:34:53.503Z,2.75
2023-01-03T23:37:20.223Z,2.38
2023-01-03T23:39:46.822Z,2.33
2023-01-03T23:42:13.399Z,3.45
2023-01-03T23:44:39.979Z,3.05
2023-01-03T23:47:12.156Z,2.33
2023-01-03T23:49:39.470Z,2.05
2023-01-03T23:52:06.079Z,2.88
2023-01-03T23:54:32.705Z,4.50
2023-01-03T23:56:59.352Z,3.88
2023-01-03T23:59:25.943Z,2.20
